sensor_id;sensor_type;location;lat;lon;timestamp;temperature;humidity
65406;DHT22;52016;51.228;-2.322;2022-07-15T00:00:10;20.40;43.00
65406;DHT22;52016;51.228;-2.322;2022-07-15T00:03:52;20.40;43.10
65406;DHT22;52016;51.228;-2.322;2022-07-15T00:07:35;20.30;43.20
65406;DHT22;52016;51.228;-2.322;2022-07-15T00:11:17;20.20;43.20
65406;DHT22;52016;51.228;-2.322;2022-07-15T00:14:59;20.20;43.20
65406;DHT22;52016;51.228;-2.322;2022-07-15T00:18:41;20.20;43.30
65406;DHT22;52016;51.228;-2.322;2022-07-15T00:22:23;20.10;43.40
65406;DHT22;52016;51.228;-2.322;2022-07-15T00:26:05;20.10;43.50
65406;DHT22;52016;51.228;-2.322;2022-07-15T00:29:48;20.00;43.50
65406;DHT22;52016;51.228;-2.322;2022-07-15T00:33:30;19.90;43.70
65406;DHT22;52016;51.228;-2.322;2022-07-15T00:37:12;20.00;43.70
65406;DHT22;52016;51.228;-2.322;2022-07-15T00:40:54;19.90;43.60
65406;DHT22;52016;51.228;-2.322;2022-07-15T00:44:36;19.90;43.70
65406;DHT22;52016;51.228;-2.322;2022-07-15T00:48:18;19.90;43.80
65406;DHT22;52016;51.228;-2.322;2022-07-15T00:52:02;19.80;43.90
65406;DHT22;52016;51.228;-2.322;2022-07-15T00:55:46;19.80;43.90
65406;DHT22;52016;51.228;-2.322;2022-07-15T00:59:31;19.80;44.00
65406;DHT22;52016;51.228;-2.322;2022-07-15T01:03:16;19.70;44.40
65406;DHT22;52016;51.228;-2.322;2022-07-15T01:06:58;19.60;44.10
65406;DHT22;52016;51.228;-2.322;2022-07-15T01:10:41;19.60;44.10
65406;DHT22;52016;51.228;-2.322;2022-07-15T01:14:23;19.60;44.10
65406;DHT22;52016;51.228;-2.322;2022-07-15T01:18:05;19.60;44.10
65406;DHT22;52016;51.228;-2.322;2022-07-15T01:21:47;19.60;44.20
65406;DHT22;52016;51.228;-2.322;2022-07-15T01:25:29;19.50;44.40
65406;DHT22;52016;51.228;-2.322;2022-07-15T01:29:11;19.40;44.50
65406;DHT22;52016;51.228;-2.322;2022-07-15T01:32:53;19.40;44.60
65406;DHT22;52016;51.228;-2.322;2022-07-15T01:36:35;19.40;44.60
65406;DHT22;52016;51.228;-2.322;2022-07-15T01:40:17;19.40;44.60
65406;DHT22;52016;51.228;-2.322;2022-07-15T01:43:59;19.40;44.50
65406;DHT22;52016;51.228;-2.322;2022-07-15T01:47:45;19.40;44.50
65406;DHT22;52016;51.228;-2.322;2022-07-15T01:51:27;19.40;44.60
65406;DHT22;52016;51.228;-2.322;2022-07-15T01:55:09;19.40;44.60
65406;DHT22;52016;51.228;-2.322;2022-07-15T01:58:51;19.30;44.70
65406;DHT22;52016;51.228;-2.322;2022-07-15T02:02:33;19.30;44.80
65406;DHT22;52016;51.228;-2.322;2022-07-15T02:06:15;19.30;44.80
65406;DHT22;52016;51.228;-2.322;2022-07-15T02:09:58;19.20;45.10
65406;DHT22;52016;51.228;-2.322;2022-07-15T02:13:40;19.00;45.40
65406;DHT22;52016;51.228;-2.322;2022-07-15T02:17:22;18.80;45.60
65406;DHT22;52016;51.228;-2.322;2022-07-15T02:21:04;18.80;45.90
65406;DHT22;52016;51.228;-2.322;2022-07-15T02:24:46;18.70;46.00
65406;DHT22;52016;51.228;-2.322;2022-07-15T02:28:27;18.70;46.00
65406;DHT22;52016;51.228;-2.322;2022-07-15T02:32:09;18.70;45.90
65406;DHT22;52016;51.228;-2.322;2022-07-15T02:35:51;18.50;46.10
65406;DHT22;52016;51.228;-2.322;2022-07-15T02:39:33;18.40;46.40
65406;DHT22;52016;51.228;-2.322;2022-07-15T02:43:15;18.30;46.40
65406;DHT22;52016;51.228;-2.322;2022-07-15T02:46:57;18.20;46.60
65406;DHT22;52016;51.228;-2.322;2022-07-15T02:50:39;18.30;46.70
65406;DHT22;52016;51.228;-2.322;2022-07-15T02:54:21;18.30;46.60
65406;DHT22;52016;51.228;-2.322;2022-07-15T02:58:03;18.30;46.60
65406;DHT22;52016;51.228;-2.322;2022-07-15T03:01:45;18.30;46.60
65406;DHT22;52016;51.228;-2.322;2022-07-15T03:05:27;18.30;46.70
65406;DHT22;52016;51.228;-2.322;2022-07-15T03:09:09;18.40;46.80
65406;DHT22;52016;51.228;-2.322;2022-07-15T03:12:50;18.30;46.90
65406;DHT22;52016;51.228;-2.322;2022-07-15T03:16:32;18.30;47.00
65406;DHT22;52016;51.228;-2.322;2022-07-15T03:20:15;18.20;47.10
65406;DHT22;52016;51.228;-2.322;2022-07-15T03:23:57;18.10;47.30
65406;DHT22;52016;51.228;-2.322;2022-07-15T03:27:39;18.00;47.50
65406;DHT22;52016;51.228;-2.322;2022-07-15T03:31:21;18.00;47.70
65406;DHT22;52016;51.228;-2.322;2022-07-15T03:35:03;17.90;47.80
65406;DHT22;52016;51.228;-2.322;2022-07-15T03:38:45;17.90;47.90
65406;DHT22;52016;51.228;-2.322;2022-07-15T03:42:27;17.90;48.00
65406;DHT22;52016;51.228;-2.322;2022-07-15T03:46:09;17.90;48.10
65406;DHT22;52016;51.228;-2.322;2022-07-15T03:49:51;17.70;48.40
65406;DHT22;52016;51.228;-2.322;2022-07-15T03:53:33;17.50;48.70
65406;DHT22;52016;51.228;-2.322;2022-07-15T03:57:15;17.40;48.80
65406;DHT22;52016;51.228;-2.322;2022-07-15T04:00:57;17.40;48.80
65406;DHT22;52016;51.228;-2.322;2022-07-15T04:04:39;17.40;48.90
65406;DHT22;52016;51.228;-2.322;2022-07-15T04:08:21;17.40;48.90
65406;DHT22;52016;51.228;-2.322;2022-07-15T04:12:03;17.40;48.90
65406;DHT22;52016;51.228;-2.322;2022-07-15T04:15:45;17.40;48.90
65406;DHT22;52016;51.228;-2.322;2022-07-15T04:19:30;17.40;49.00
65406;DHT22;52016;51.228;-2.322;2022-07-15T04:23:13;17.40;49.10
65406;DHT22;52016;51.228;-2.322;2022-07-15T04:26:55;17.40;49.10
65406;DHT22;52016;51.228;-2.322;2022-07-15T04:30:37;17.40;49.10
65406;DHT22;52016;51.228;-2.322;2022-07-15T04:34:18;17.30;49.10
65406;DHT22;52016;51.228;-2.322;2022-07-15T04:38:00;17.10;49.40
65406;DHT22;52016;51.228;-2.322;2022-07-15T04:41:42;17.10;49.60
65406;DHT22;52016;51.228;-2.322;2022-07-15T04:45:28;17.10;49.60
65406;DHT22;52016;51.228;-2.322;2022-07-15T04:49:10;17.20;49.70
65406;DHT22;52016;51.228;-2.322;2022-07-15T04:53:10;17.20;49.70
65406;DHT22;52016;51.228;-2.322;2022-07-15T04:56:52;17.30;49.70
65406;DHT22;52016;51.228;-2.322;2022-07-15T05:00:34;17.20;49.80
65406;DHT22;52016;51.228;-2.322;2022-07-15T05:04:16;17.00;50.10
65406;DHT22;52016;51.228;-2.322;2022-07-15T05:07:58;17.00;50.30
65406;DHT22;52016;51.228;-2.322;2022-07-15T05:11:47;17.00;50.30
65406;DHT22;52016;51.228;-2.322;2022-07-15T05:15:29;17.10;50.20
65406;DHT22;52016;51.228;-2.322;2022-07-15T05:19:11;17.30;50.20
65406;DHT22;52016;51.228;-2.322;2022-07-15T05:22:53;17.30;50.20
65406;DHT22;52016;51.228;-2.322;2022-07-15T05:26:35;17.30;50.20
65406;DHT22;52016;51.228;-2.322;2022-07-15T05:30:25;17.30;50.50
65406;DHT22;52016;51.228;-2.322;2022-07-15T05:34:07;17.20;50.40
65406;DHT22;52016;51.228;-2.322;2022-07-15T05:37:49;17.10;50.80
65406;DHT22;52016;51.228;-2.322;2022-07-15T05:41:31;17.10;50.90
65406;DHT22;52016;51.228;-2.322;2022-07-15T05:45:14;17.00;50.90
65406;DHT22;52016;51.228;-2.322;2022-07-15T05:48:55;17.00;50.90
65406;DHT22;52016;51.228;-2.322;2022-07-15T05:52:37;17.10;51.00
65406;DHT22;52016;51.228;-2.322;2022-07-15T05:56:19;17.10;50.90
65406;DHT22;52016;51.228;-2.322;2022-07-15T06:00:02;17.20;51.00
65406;DHT22;52016;51.228;-2.322;2022-07-15T06:03:44;17.30;51.10
65406;DHT22;52016;51.228;-2.322;2022-07-15T06:07:26;17.30;50.90
65406;DHT22;52016;51.228;-2.322;2022-07-15T06:11:08;17.40;51.00
65406;DHT22;52016;51.228;-2.322;2022-07-15T06:14:53;17.40;51.10
65406;DHT22;52016;51.228;-2.322;2022-07-15T06:18:35;17.40;51.00
65406;DHT22;52016;51.228;-2.322;2022-07-15T06:22:17;17.50;51.00
65406;DHT22;52016;51.228;-2.322;2022-07-15T06:25:59;17.50;51.10
65406;DHT22;52016;51.228;-2.322;2022-07-15T06:29:41;17.70;51.00
65406;DHT22;52016;51.228;-2.322;2022-07-15T06:33:23;17.70;51.10
65406;DHT22;52016;51.228;-2.322;2022-07-15T06:37:06;17.80;51.20
65406;DHT22;52016;51.228;-2.322;2022-07-15T06:40:47;17.90;51.20
65406;DHT22;52016;51.228;-2.322;2022-07-15T06:44:29;17.90;51.10
65406;DHT22;52016;51.228;-2.322;2022-07-15T06:48:11;18.00;51.10
65406;DHT22;52016;51.228;-2.322;2022-07-15T06:51:54;18.20;50.90
65406;DHT22;52016;51.228;-2.322;2022-07-15T06:55:35;18.30;50.80
65406;DHT22;52016;51.228;-2.322;2022-07-15T06:59:17;18.40;50.70
65406;DHT22;52016;51.228;-2.322;2022-07-15T07:02:59;18.40;50.80
65406;DHT22;52016;51.228;-2.322;2022-07-15T07:06:41;18.40;50.70
65406;DHT22;52016;51.228;-2.322;2022-07-15T07:10:23;18.50;50.70
65406;DHT22;52016;51.228;-2.322;2022-07-15T07:14:06;18.70;50.60
65406;DHT22;52016;51.228;-2.322;2022-07-15T07:17:48;18.70;50.50
65406;DHT22;52016;51.228;-2.322;2022-07-15T07:21:30;18.80;50.30
65406;DHT22;52016;51.228;-2.322;2022-07-15T07:25:13;18.90;50.20
65406;DHT22;52016;51.228;-2.322;2022-07-15T07:28:55;18.90;50.20
65406;DHT22;52016;51.228;-2.322;2022-07-15T07:32:37;19.00;50.00
65406;DHT22;52016;51.228;-2.322;2022-07-15T07:36:20;19.10;49.90
65406;DHT22;52016;51.228;-2.322;2022-07-15T07:40:03;19.20;49.70
65406;DHT22;52016;51.228;-2.322;2022-07-15T07:43:45;19.30;49.60
65406;DHT22;52016;51.228;-2.322;2022-07-15T07:47:27;19.40;49.70
65406;DHT22;52016;51.228;-2.322;2022-07-15T07:51:09;19.40;49.70
65406;DHT22;52016;51.228;-2.322;2022-07-15T07:54:51;19.50;49.50
65406;DHT22;52016;51.228;-2.322;2022-07-15T07:58:33;19.60;49.50
65406;DHT22;52016;51.228;-2.322;2022-07-15T08:02:16;19.70;49.50
65406;DHT22;52016;51.228;-2.322;2022-07-15T08:05:58;19.80;49.30
65406;DHT22;52016;51.228;-2.322;2022-07-15T08:09:40;19.90;49.00
65406;DHT22;52016;51.228;-2.322;2022-07-15T08:13:24;19.90;48.90
65406;DHT22;52016;51.228;-2.322;2022-07-15T08:17:06;19.90;48.80
65406;DHT22;52016;51.228;-2.322;2022-07-15T08:20:49;20.00;48.50
65406;DHT22;52016;51.228;-2.322;2022-07-15T08:24:31;20.10;48.30
65406;DHT22;52016;51.228;-2.322;2022-07-15T08:28:13;20.10;48.10
65406;DHT22;52016;51.228;-2.322;2022-07-15T08:31:55;20.20;48.00
65406;DHT22;52016;51.228;-2.322;2022-07-15T08:35:37;20.30;47.80
65406;DHT22;52016;51.228;-2.322;2022-07-15T08:39:18;20.30;47.50
65406;DHT22;52016;51.228;-2.322;2022-07-15T08:43:01;20.30;47.30
65406;DHT22;52016;51.228;-2.322;2022-07-15T08:46:46;20.40;47.10
65406;DHT22;52016;51.228;-2.322;2022-07-15T08:50:29;20.50;46.90
65406;DHT22;52016;51.228;-2.322;2022-07-15T08:54:14;20.60;46.80
65406;DHT22;52016;51.228;-2.322;2022-07-15T08:57:56;20.60;46.60
65406;DHT22;52016;51.228;-2.322;2022-07-15T09:01:44;20.70;46.50
65406;DHT22;52016;51.228;-2.322;2022-07-15T09:12:59;20.90;46.20
65406;DHT22;52016;51.228;-2.322;2022-07-15T09:16:41;21.00;46.20
65406;DHT22;52016;51.228;-2.322;2022-07-15T09:20:24;21.10;46.00
65406;DHT22;52016;51.228;-2.322;2022-07-15T09:24:18;21.20;45.70
65406;DHT22;52016;51.228;-2.322;2022-07-15T09:28:03;21.30;45.10
65406;DHT22;52016;51.228;-2.322;2022-07-15T09:31:45;21.30;45.60
65406;DHT22;52016;51.228;-2.322;2022-07-15T09:35:46;21.40;45.30
65406;DHT22;52016;51.228;-2.322;2022-07-15T09:39:56;21.50;45.10
65406;DHT22;52016;51.228;-2.322;2022-07-15T09:43:47;21.40;44.70
65406;DHT22;52016;51.228;-2.322;2022-07-15T09:47:29;21.40;44.40
65406;DHT22;52016;51.228;-2.322;2022-07-15T09:51:12;21.40;44.90
65406;DHT22;52016;51.228;-2.322;2022-07-15T09:54:54;21.50;44.80
65406;DHT22;52016;51.228;-2.322;2022-07-15T09:58:37;21.60;44.70
65406;DHT22;52016;51.228;-2.322;2022-07-15T10:02:20;21.60;44.60
65406;DHT22;52016;51.228;-2.322;2022-07-15T10:06:03;21.70;44.60
65406;DHT22;52016;51.228;-2.322;2022-07-15T10:09:45;21.80;44.50
65406;DHT22;52016;51.228;-2.322;2022-07-15T10:13:57;21.80;44.20
65406;DHT22;52016;51.228;-2.322;2022-07-15T10:29:54;22.20;43.90
65406;DHT22;52016;51.228;-2.322;2022-07-15T10:33:36;22.30;44.00
65406;DHT22;52016;51.228;-2.322;2022-07-15T10:37:18;22.40;44.00
65406;DHT22;52016;51.228;-2.322;2022-07-15T10:48:39;22.70;43.70
65406;DHT22;52016;51.228;-2.322;2022-07-15T10:52:29;22.80;43.90
65406;DHT22;52016;51.228;-2.322;2022-07-15T10:56:37;22.80;43.80
65406;DHT22;52016;51.228;-2.322;2022-07-15T11:00:34;22.90;43.90
65406;DHT22;52016;51.228;-2.322;2022-07-15T11:04:24;23.10;43.80
65406;DHT22;52016;51.228;-2.322;2022-07-15T11:12:16;23.20;44.30
65406;DHT22;52016;51.228;-2.322;2022-07-15T11:15:59;23.20;44.30
65406;DHT22;52016;51.228;-2.322;2022-07-15T11:19:44;23.10;44.70
65406;DHT22;52016;51.228;-2.322;2022-07-15T11:23:30;23.10;44.80
65406;DHT22;52016;51.228;-2.322;2022-07-15T11:27:13;23.30;44.80
65406;DHT22;52016;51.228;-2.322;2022-07-15T11:30:55;23.40;44.60
65406;DHT22;52016;51.228;-2.322;2022-07-15T11:34:46;23.40;44.50
65406;DHT22;52016;51.228;-2.322;2022-07-15T11:38:30;23.30;44.40
65406;DHT22;52016;51.228;-2.322;2022-07-15T11:42:23;23.40;44.40
65406;DHT22;52016;51.228;-2.322;2022-07-15T11:46:25;23.50;43.90
65406;DHT22;52016;51.228;-2.322;2022-07-15T11:50:07;23.70;44.00
65406;DHT22;52016;51.228;-2.322;2022-07-15T11:53:49;23.90;43.80
65406;DHT22;52016;51.228;-2.322;2022-07-15T11:57:34;23.90;43.60
65406;DHT22;52016;51.228;-2.322;2022-07-15T12:01:20;23.80;43.70
65406;DHT22;52016;51.228;-2.322;2022-07-15T12:05:04;24.10;43.50
65406;DHT22;52016;51.228;-2.322;2022-07-15T12:08:47;24.40;43.60
65406;DHT22;52016;51.228;-2.322;2022-07-15T12:12:30;24.80;43.40
65406;DHT22;52016;51.228;-2.322;2022-07-15T12:16:12;25.00;43.00
65406;DHT22;52016;51.228;-2.322;2022-07-15T12:19:55;25.40;42.80
65406;DHT22;52016;51.228;-2.322;2022-07-15T12:23:40;25.80;42.60
65406;DHT22;52016;51.228;-2.322;2022-07-15T12:27:37;26.00;42.10
65406;DHT22;52016;51.228;-2.322;2022-07-15T12:31:30;26.30;41.40
65406;DHT22;52016;51.228;-2.322;2022-07-15T12:35:14;26.40;41.00
65406;DHT22;52016;51.228;-2.322;2022-07-15T12:39:09;26.60;41.20
65406;DHT22;52016;51.228;-2.322;2022-07-15T12:43:00;26.60;41.00
65406;DHT22;52016;51.228;-2.322;2022-07-15T12:46:54;26.70;41.60
65406;DHT22;52016;51.228;-2.322;2022-07-15T12:54:36;27.00;40.50
65406;DHT22;52016;51.228;-2.322;2022-07-15T12:58:24;27.00;41.40
65406;DHT22;52016;51.228;-2.322;2022-07-15T13:02:06;27.20;41.20
65406;DHT22;52016;51.228;-2.322;2022-07-15T13:05:53;27.30;41.20
65406;DHT22;52016;51.228;-2.322;2022-07-15T13:09:36;27.40;41.20
65406;DHT22;52016;51.228;-2.322;2022-07-15T13:13:20;27.60;41.30
65406;DHT22;52016;51.228;-2.322;2022-07-15T13:17:03;27.90;41.00
65406;DHT22;52016;51.228;-2.322;2022-07-15T13:20:45;28.10;40.90
65406;DHT22;52016;51.228;-2.322;2022-07-15T13:24:28;28.30;40.50
65406;DHT22;52016;51.228;-2.322;2022-07-15T13:28:10;28.40;40.40
65406;DHT22;52016;51.228;-2.322;2022-07-15T13:31:51;28.40;40.40
65406;DHT22;52016;51.228;-2.322;2022-07-15T13:35:33;28.70;39.90
65406;DHT22;52016;51.228;-2.322;2022-07-15T13:39:15;28.90;39.80
65406;DHT22;52016;51.228;-2.322;2022-07-15T13:43:05;29.40;39.20
65406;DHT22;52016;51.228;-2.322;2022-07-15T13:46:47;29.50;39.00
65406;DHT22;52016;51.228;-2.322;2022-07-15T13:50:29;29.80;38.80
65406;DHT22;52016;51.228;-2.322;2022-07-15T13:54:30;30.10;38.50
65406;DHT22;52016;51.228;-2.322;2022-07-15T13:58:12;30.40;38.20
65406;DHT22;52016;51.228;-2.322;2022-07-15T14:01:54;30.70;38.20
65406;DHT22;52016;51.228;-2.322;2022-07-15T14:05:37;31.20;37.60
65406;DHT22;52016;51.228;-2.322;2022-07-15T14:09:19;31.30;37.00
65406;DHT22;52016;51.228;-2.322;2022-07-15T14:13:01;31.30;36.60
65406;DHT22;52016;51.228;-2.322;2022-07-15T14:16:43;31.20;36.50
65406;DHT22;52016;51.228;-2.322;2022-07-15T14:20:25;31.20;36.60
65406;DHT22;52016;51.228;-2.322;2022-07-15T14:24:07;31.40;36.50
65406;DHT22;52016;51.228;-2.322;2022-07-15T14:27:49;31.80;36.30
65406;DHT22;52016;51.228;-2.322;2022-07-15T14:31:31;31.90;35.70
65406;DHT22;52016;51.228;-2.322;2022-07-15T14:35:13;31.30;35.80
65406;DHT22;52016;51.228;-2.322;2022-07-15T14:38:55;30.60;36.30
65406;DHT22;52016;51.228;-2.322;2022-07-15T14:42:37;30.10;36.50
65406;DHT22;52016;51.228;-2.322;2022-07-15T14:46:20;29.50;36.60
65406;DHT22;52016;51.228;-2.322;2022-07-15T14:50:04;29.00;37.00
65406;DHT22;52016;51.228;-2.322;2022-07-15T14:53:46;29.10;37.40
65406;DHT22;52016;51.228;-2.322;2022-07-15T14:57:28;29.80;37.30
65406;DHT22;52016;51.228;-2.322;2022-07-15T15:01:10;30.20;36.90
65406;DHT22;52016;51.228;-2.322;2022-07-15T15:04:52;30.00;36.90
65406;DHT22;52016;51.228;-2.322;2022-07-15T15:08:34;29.50;37.30
65406;DHT22;52016;51.228;-2.322;2022-07-15T15:12:16;29.30;37.60
65406;DHT22;52016;51.228;-2.322;2022-07-15T15:15:57;29.30;37.90
65406;DHT22;52016;51.228;-2.322;2022-07-15T15:19:40;29.40;37.50
65406;DHT22;52016;51.228;-2.322;2022-07-15T15:23:22;29.50;37.60
65406;DHT22;52016;51.228;-2.322;2022-07-15T15:27:04;30.30;37.40
65406;DHT22;52016;51.228;-2.322;2022-07-15T15:30:46;30.90;36.60
65406;DHT22;52016;51.228;-2.322;2022-07-15T15:34:29;31.20;36.30
65406;DHT22;52016;51.228;-2.322;2022-07-15T15:38:11;31.40;36.10
65406;DHT22;52016;51.228;-2.322;2022-07-15T15:41:53;31.70;36.00
65406;DHT22;52016;51.228;-2.322;2022-07-15T15:45:35;32.00;35.40
65406;DHT22;52016;51.228;-2.322;2022-07-15T15:49:17;31.50;35.60
65406;DHT22;52016;51.228;-2.322;2022-07-15T15:52:58;31.00;35.80
65406;DHT22;52016;51.228;-2.322;2022-07-15T15:56:40;30.70;36.30
65406;DHT22;52016;51.228;-2.322;2022-07-15T16:00:22;31.20;35.90
65406;DHT22;52016;51.228;-2.322;2022-07-15T16:04:04;31.40;35.80
65406;DHT22;52016;51.228;-2.322;2022-07-15T16:07:46;31.90;35.40
65406;DHT22;52016;51.228;-2.322;2022-07-15T16:11:28;31.80;35.20
65406;DHT22;52016;51.228;-2.322;2022-07-15T16:15:10;31.70;35.30
65406;DHT22;52016;51.228;-2.322;2022-07-15T16:18:52;32.10;35.40
65406;DHT22;52016;51.228;-2.322;2022-07-15T16:22:34;33.10;34.70
65406;DHT22;52016;51.228;-2.322;2022-07-15T16:26:34;33.70;34.10
65406;DHT22;52016;51.228;-2.322;2022-07-15T16:30:16;34.00;33.90
65406;DHT22;52016;51.228;-2.322;2022-07-15T16:34:07;34.40;33.50
65406;DHT22;52016;51.228;-2.322;2022-07-15T16:37:50;34.40;33.30
65406;DHT22;52016;51.228;-2.322;2022-07-15T16:41:32;34.00;33.10
65406;DHT22;52016;51.228;-2.322;2022-07-15T16:45:14;33.70;33.40
65406;DHT22;52016;51.228;-2.322;2022-07-15T16:48:57;33.90;33.30
65406;DHT22;52016;51.228;-2.322;2022-07-15T16:52:38;33.60;33.20
65406;DHT22;52016;51.228;-2.322;2022-07-15T16:56:21;32.40;33.90
65406;DHT22;52016;51.228;-2.322;2022-07-15T17:00:05;31.70;34.60
65406;DHT22;52016;51.228;-2.322;2022-07-15T17:03:48;31.90;34.60
65406;DHT22;52016;51.228;-2.322;2022-07-15T17:07:30;32.50;34.10
65406;DHT22;52016;51.228;-2.322;2022-07-15T17:11:12;32.80;33.90
65406;DHT22;52016;51.228;-2.322;2022-07-15T17:14:54;32.70;33.90
65406;DHT22;52016;51.228;-2.322;2022-07-15T17:18:35;31.90;34.50
65406;DHT22;52016;51.228;-2.322;2022-07-15T17:22:17;31.50;34.80
65406;DHT22;52016;51.228;-2.322;2022-07-15T17:25:59;31.70;34.80
65406;DHT22;52016;51.228;-2.322;2022-07-15T17:29:41;32.00;34.60
65406;DHT22;52016;51.228;-2.322;2022-07-15T17:33:24;32.40;34.50
65406;DHT22;52016;51.228;-2.322;2022-07-15T17:37:07;32.90;34.10
65406;DHT22;52016;51.228;-2.322;2022-07-15T17:40:49;33.20;33.80
65406;DHT22;52016;51.228;-2.322;2022-07-15T17:44:31;33.10;33.90
65406;DHT22;52016;51.228;-2.322;2022-07-15T17:48:13;33.00;34.00
65406;DHT22;52016;51.228;-2.322;2022-07-15T17:51:55;32.80;34.10
65406;DHT22;52016;51.228;-2.322;2022-07-15T17:55:38;32.40;34.30
65406;DHT22;52016;51.228;-2.322;2022-07-15T17:59:20;32.20;34.50
65406;DHT22;52016;51.228;-2.322;2022-07-15T18:03:02;31.90;34.70
65406;DHT22;52016;51.228;-2.322;2022-07-15T18:06:44;31.40;35.10
65406;DHT22;52016;51.228;-2.322;2022-07-15T18:10:26;31.10;35.40
65406;DHT22;52016;51.228;-2.322;2022-07-15T18:14:08;30.80;35.70
65406;DHT22;52016;51.228;-2.322;2022-07-15T18:17:50;30.90;35.60
65406;DHT22;52016;51.228;-2.322;2022-07-15T18:21:32;31.20;35.50
65406;DHT22;52016;51.228;-2.322;2022-07-15T18:25:14;31.00;35.70
65406;DHT22;52016;51.228;-2.322;2022-07-15T18:28:56;30.80;35.80
65406;DHT22;52016;51.228;-2.322;2022-07-15T18:32:38;30.20;36.40
65406;DHT22;52016;51.228;-2.322;2022-07-15T18:36:21;29.80;36.80
65406;DHT22;52016;51.228;-2.322;2022-07-15T18:40:05;29.50;37.10
65406;DHT22;52016;51.228;-2.322;2022-07-15T18:43:48;29.00;37.50
65406;DHT22;52016;51.228;-2.322;2022-07-15T18:47:30;28.60;37.90
65406;DHT22;52016;51.228;-2.322;2022-07-15T18:51:11;28.30;38.20
65406;DHT22;52016;51.228;-2.322;2022-07-15T18:54:53;28.10;38.50
65406;DHT22;52016;51.228;-2.322;2022-07-15T18:58:35;27.90;38.90
65406;DHT22;52016;51.228;-2.322;2022-07-15T19:02:18;27.90;39.20
65406;DHT22;52016;51.228;-2.322;2022-07-15T19:06:04;28.00;39.00
65406;DHT22;52016;51.228;-2.322;2022-07-15T19:09:46;28.10;38.90
65406;DHT22;52016;51.228;-2.322;2022-07-15T19:13:28;27.90;39.20
65406;DHT22;52016;51.228;-2.322;2022-07-15T19:17:10;27.40;39.80
65406;DHT22;52016;51.228;-2.322;2022-07-15T19:20:54;27.00;40.40
65406;DHT22;52016;51.228;-2.322;2022-07-15T19:24:37;26.60;41.50
65406;DHT22;52016;51.228;-2.322;2022-07-15T19:28:19;26.10;42.20
65406;DHT22;52016;51.228;-2.322;2022-07-15T19:32:01;25.80;42.70
65406;DHT22;52016;51.228;-2.322;2022-07-15T19:35:43;25.50;43.20
65406;DHT22;52016;51.228;-2.322;2022-07-15T19:39:25;25.30;43.90
65406;DHT22;52016;51.228;-2.322;2022-07-15T19:43:09;25.00;44.30
65406;DHT22;52016;51.228;-2.322;2022-07-15T19:46:52;24.70;44.60
65406;DHT22;52016;51.228;-2.322;2022-07-15T19:50:34;24.60;44.90
65406;DHT22;52016;51.228;-2.322;2022-07-15T19:54:16;24.60;44.90
65406;DHT22;52016;51.228;-2.322;2022-07-15T19:57:58;24.50;44.90
65406;DHT22;52016;51.228;-2.322;2022-07-15T20:01:40;24.40;44.80
65406;DHT22;52016;51.228;-2.322;2022-07-15T20:05:23;24.30;44.90
65406;DHT22;52016;51.228;-2.322;2022-07-15T20:09:06;24.10;45.30
65406;DHT22;52016;51.228;-2.322;2022-07-15T20:12:48;23.80;46.10
65406;DHT22;52016;51.228;-2.322;2022-07-15T20:16:31;23.50;46.80
65406;DHT22;52016;51.228;-2.322;2022-07-15T20:20:13;23.30;47.40
65406;DHT22;52016;51.228;-2.322;2022-07-15T20:23:56;23.10;47.60
65406;DHT22;52016;51.228;-2.322;2022-07-15T20:27:38;23.00;48.00
65406;DHT22;52016;51.228;-2.322;2022-07-15T20:31:20;22.90;47.80
65406;DHT22;52016;51.228;-2.322;2022-07-15T20:35:02;22.90;48.00
65406;DHT22;52016;51.228;-2.322;2022-07-15T20:38:44;22.90;48.10
65406;DHT22;52016;51.228;-2.322;2022-07-15T20:42:27;22.80;48.00
65406;DHT22;52016;51.228;-2.322;2022-07-15T20:46:09;22.80;48.00
65406;DHT22;52016;51.228;-2.322;2022-07-15T20:49:51;22.70;48.40
65406;DHT22;52016;51.228;-2.322;2022-07-15T20:53:32;22.60;48.50
65406;DHT22;52016;51.228;-2.322;2022-07-15T20:57:14;22.40;48.80
65406;DHT22;52016;51.228;-2.322;2022-07-15T21:00:56;22.40;49.00
65406;DHT22;52016;51.228;-2.322;2022-07-15T21:04:38;22.30;49.10
65406;DHT22;52016;51.228;-2.322;2022-07-15T21:08:20;22.10;49.50
65406;DHT22;52016;51.228;-2.322;2022-07-15T21:12:03;22.00;49.50
65406;DHT22;52016;51.228;-2.322;2022-07-15T21:15:45;22.00;49.40
65406;DHT22;52016;51.228;-2.322;2022-07-15T21:19:27;22.00;49.30
65406;DHT22;52016;51.228;-2.322;2022-07-15T21:23:09;22.00;49.20
65406;DHT22;52016;51.228;-2.322;2022-07-15T21:26:51;22.00;49.10
65406;DHT22;52016;51.228;-2.322;2022-07-15T21:30:33;22.00;49.10
65406;DHT22;52016;51.228;-2.322;2022-07-15T21:34:17;22.00;49.10
65406;DHT22;52016;51.228;-2.322;2022-07-15T21:37:58;21.90;49.20
65406;DHT22;52016;51.228;-2.322;2022-07-15T21:41:40;21.90;49.40
65406;DHT22;52016;51.228;-2.322;2022-07-15T21:45:22;21.70;49.60
65406;DHT22;52016;51.228;-2.322;2022-07-15T21:49:06;21.70;49.90
65406;DHT22;52016;51.228;-2.322;2022-07-15T21:52:48;21.60;50.30
65406;DHT22;52016;51.228;-2.322;2022-07-15T21:56:30;21.40;50.40
65406;DHT22;52016;51.228;-2.322;2022-07-15T22:00:14;21.40;50.40
65406;DHT22;52016;51.228;-2.322;2022-07-15T22:03:56;21.40;50.50
65406;DHT22;52016;51.228;-2.322;2022-07-15T22:07:39;21.50;50.30
65406;DHT22;52016;51.228;-2.322;2022-07-15T22:11:21;21.50;50.50
65406;DHT22;52016;51.228;-2.322;2022-07-15T22:15:03;21.60;50.50
65406;DHT22;52016;51.228;-2.322;2022-07-15T22:18:45;21.50;50.30
65406;DHT22;52016;51.228;-2.322;2022-07-15T22:22:27;21.40;50.40
65406;DHT22;52016;51.228;-2.322;2022-07-15T22:26:09;21.20;50.90
65406;DHT22;52016;51.228;-2.322;2022-07-15T22:29:52;21.10;51.20
65406;DHT22;52016;51.228;-2.322;2022-07-15T22:33:34;21.10;51.20
65406;DHT22;52016;51.228;-2.322;2022-07-15T22:37:16;21.00;51.30
65406;DHT22;52016;51.228;-2.322;2022-07-15T22:40:58;21.00;51.40
65406;DHT22;52016;51.228;-2.322;2022-07-15T22:44:40;21.00;51.50
65406;DHT22;52016;51.228;-2.322;2022-07-15T22:48:22;21.00;51.60
65406;DHT22;52016;51.228;-2.322;2022-07-15T22:52:04;21.00;51.70
65406;DHT22;52016;51.228;-2.322;2022-07-15T22:55:46;21.00;51.70
65406;DHT22;52016;51.228;-2.322;2022-07-15T22:59:28;20.90;51.90
65406;DHT22;52016;51.228;-2.322;2022-07-15T23:03:10;20.80;52.30
65406;DHT22;52016;51.228;-2.322;2022-07-15T23:06:52;20.80;52.50
65406;DHT22;52016;51.228;-2.322;2022-07-15T23:10:34;20.80;52.50
65406;DHT22;52016;51.228;-2.322;2022-07-15T23:14:15;20.80;52.40
65406;DHT22;52016;51.228;-2.322;2022-07-15T23:17:57;20.70;52.50
65406;DHT22;52016;51.228;-2.322;2022-07-15T23:21:39;20.70;52.50
65406;DHT22;52016;51.228;-2.322;2022-07-15T23:25:22;20.70;52.50
65406;DHT22;52016;51.228;-2.322;2022-07-15T23:29:03;20.70;52.50
65406;DHT22;52016;51.228;-2.322;2022-07-15T23:32:45;20.80;52.50
65406;DHT22;52016;51.228;-2.322;2022-07-15T23:36:27;20.70;52.50
65406;DHT22;52016;51.228;-2.322;2022-07-15T23:40:10;20.70;52.80